Time;durP1;ratioP1;P1;durP2;ratioP2;P2;SDS_P1;SDS_P2;PMS_P1;PMS_P2;Temp;Humidity;BMP_temperature;BMP_pressure;BME280_temperature;BME280_humidity;BME280_pressure;Samples;Min_cycle;Max_cycle;Signal;HPM_P1;HPM_P2
2024/03/27 00:04:05;;;;;;;;;;;11.20;99.90;;;;;;6744509;88;20099;-77
2024/03/27 00:14:05;;;;;;;;;;;11.10;99.90;;;;;;6741967;88;20626;-77
2024/03/27 00:24:06;;;;;;;;;;;11.00;99.90;;;;;;6741285;88;20166;-76
2024/03/27 00:34:07;;;;;;;;;;;11.20;99.90;;;;;;6741103;88;20058;-77
2024/03/27 00:44:07;;;;;;;;;;;11.20;99.90;;;;;;6741899;88;20070;-77
2024/03/27 00:54:08;;;;;;;;;;;11.20;99.90;;;;;;6742034;88;20543;-76
2024/03/27 01:04:08;;;;;;;;;;;11.00;99.90;;;;;;6744972;88;20109;-78
2024/03/27 01:14:09;;;;;;;;;;;10.80;99.90;;;;;;6760823;88;20530;-78
2024/03/27 01:24:09;;;;;;;;;;;10.70;99.90;;;;;;6740004;88;20079;-77
2024/03/27 01:34:09;;;;;;;;;;;10.50;99.90;;;;;;6738596;88;20100;-77
2024/03/27 01:54:52;;;;;;;;;;;10.10;99.90;;;;;;6719723;88;20154;-79
2024/03/27 02:04:52;;;;;;;;;;;10.00;99.90;;;;;;6714512;88;20180;-78
2024/03/27 02:14:53;;;;;;;;;;;10.10;99.90;;;;;;6716005;88;20493;-78
2024/03/27 02:24:56;;;;;;;;;;;10.10;99.90;;;;;;6719324;88;20169;-78
2024/03/27 02:34:56;;;;;;;;;;;10.00;99.90;;;;;;6719896;88;20080;-78
2024/03/27 02:44:57;;;;;;;;;;;9.80;99.90;;;;;;6719387;88;20069;-78
2024/03/27 02:54:57;;;;;;;;;;;9.70;99.90;;;;;;6720050;88;20497;-78
2024/03/27 03:04:58;;;;;;;;;;;9.60;99.90;;;;;;6720698;88;20125;-78
2024/03/27 03:14:58;;;;;;;;;;;9.80;99.90;;;;;;6723651;88;20124;-78
2024/03/27 03:24:59;;;;;;;;;;;9.80;99.90;;;;;;6722295;88;20552;-77
2024/03/27 03:34:59;;;;;;;;;;;9.80;99.90;;;;;;6719344;88;20062;-78
2024/03/27 03:44:59;;;;;;;;;;;9.60;99.90;;;;;;6716379;88;20194;-77
2024/03/27 03:55:00;;;;;;;;;;;9.70;99.90;;;;;;6715263;88;20200;-77
2024/03/27 04:05:00;;;;;;;;;;;9.60;99.90;;;;;;6716338;88;20625;-77
2024/03/27 04:15:01;;;;;;;;;;;9.50;99.90;;;;;;6713386;88;20185;-77
2024/03/27 04:25:02;;;;;;;;;;;9.30;99.90;;;;;;6715565;88;20463;-77
2024/03/27 04:35:02;;;;;;;;;;;9.10;99.90;;;;;;6722708;88;20063;-77
2024/03/27 04:45:07;;;;;;;;;;;9.00;99.90;;;;;;6721762;88;20537;-77
2024/03/27 04:55:08;;;;;;;;;;;9.00;99.90;;;;;;6712743;88;20089;-77
2024/03/27 05:05:08;;;;;;;;;;;9.20;99.90;;;;;;6715990;88;20070;-77
2024/03/27 05:15:09;;;;;;;;;;;9.40;99.90;;;;;;6714086;88;20929;-77
2024/03/27 05:25:09;;;;;;;;;;;9.80;99.90;;;;;;6710850;88;20065;-77
2024/03/27 05:35:10;;;;;;;;;;;9.70;99.90;;;;;;6707454;88;20088;-77
2024/03/27 05:45:11;;;;;;;;;;;9.40;99.90;;;;;;6714220;88;20568;-77
2024/03/27 05:55:12;;;;;;;;;;;9.50;99.90;;;;;;6713175;88;20046;-77
2024/03/27 06:05:13;;;;;;;;;;;9.70;99.90;;;;;;6722326;88;20176;-77
2024/03/27 06:15:13;;;;;;;;;;;9.60;99.90;;;;;;6719204;88;20080;-78
2024/03/27 06:25:14;;;;;;;;;;;9.60;99.90;;;;;;6717390;88;20125;-78
2024/03/27 06:35:15;;;;;;;;;;;9.60;99.90;;;;;;6720809;88;20192;-78
2024/03/27 06:45:15;;;;;;;;;;;9.60;99.90;;;;;;6721495;88;20581;-78
2024/03/27 06:55:16;;;;;;;;;;;9.70;99.90;;;;;;6725077;88;20054;-77
2024/03/27 07:05:16;;;;;;;;;;;9.90;99.90;;;;;;6732342;88;20042;-78
2024/03/27 07:15:17;;;;;;;;;;;10.00;99.90;;;;;;6725477;88;20109;-78
2024/03/27 07:25:17;;;;;;;;;;;10.20;99.90;;;;;;6710536;88;20062;-78
2024/03/27 07:35:18;;;;;;;;;;;10.40;99.90;;;;;;6710878;88;20066;-78
2024/03/27 07:45:18;;;;;;;;;;;10.50;99.90;;;;;;6741258;77;20091;-78
2024/03/27 07:55:19;;;;;;;;;;;10.50;99.90;;;;;;6722343;88;20518;-78
2024/03/27 08:05:19;;;;;;;;;;;10.60;99.90;;;;;;6709368;88;20514;-78
2024/03/27 08:15:20;;;;;;;;;;;10.60;99.90;;;;;;6713569;88;20059;-78
2024/03/27 08:25:20;;;;;;;;;;;10.50;99.90;;;;;;6713047;88;20142;-78
2024/03/27 08:35:20;;;;;;;;;;;10.70;99.90;;;;;;6711516;88;20081;-79
2024/03/27 08:45:21;;;;;;;;;;;11.00;99.90;;;;;;6713046;88;20088;-78
2024/03/27 08:55:22;;;;;;;;;;;11.70;99.90;;;;;;6707972;88;20055;-78
2024/03/27 09:05:22;;;;;;;;;;;12.10;99.90;;;;;;6706016;88;20093;-78
2024/03/27 09:15:23;;;;;;;;;;;12.40;99.90;;;;;;6715455;88;20076;-78
2024/03/27 09:25:23;;;;;;;;;;;12.30;99.90;;;;;;6704153;88;20055;-78
2024/03/27 09:35:24;;;;;;;;;;;12.40;99.90;;;;;;6706505;88;20068;-78
2024/03/27 09:45:28;;;;;;;;;;;12.50;99.90;;;;;;6706378;88;20085;-78
2024/03/27 09:55:30;;;;;;;;;;;12.50;99.90;;;;;;6704828;88;20072;-78
2024/03/27 10:05:32;;;;;;;;;;;12.60;99.90;;;;;;6709382;88;20075;-77
2024/03/27 10:15:34;;;;;;;;;;;12.70;99.90;;;;;;6722462;88;20076;-79
2024/03/27 10:25:36;;;;;;;;;;;12.80;99.90;;;;;;6712404;88;20184;-77
2024/03/27 10:35:37;;;;;;;;;;;12.80;99.90;;;;;;6709084;88;20100;-79
2024/03/27 10:45:39;;;;;;;;;;;12.90;99.90;;;;;;6712057;88;20052;-78
2024/03/27 10:55:40;;;;;;;;;;;12.80;99.90;;;;;;6716860;88;20099;-78
2024/03/27 11:05:47;;;;;;;;;;;12.90;99.90;;;;;;6710378;88;20493;-78
2024/03/27 11:15:53;;;;;;;;;;;13.00;99.90;;;;;;6726436;88;20137;-79
2024/03/27 11:25:54;;;;;;;;;;;13.30;99.90;;;;;;6722486;88;20059;-80
2024/03/27 11:35:55;;;;;;;;;;;13.20;99.90;;;;;;6720773;88;20059;-80
2024/03/27 11:45:57;;;;;;;;;;;13.20;99.90;;;;;;6718190;88;20095;-79
2024/03/27 11:55:57;;;;;;;;;;;13.10;99.90;;;;;;6715240;88;20083;-80
2024/03/27 12:05:58;;;;;;;;;;;13.00;99.90;;;;;;6719576;88;20278;-79
2024/03/27 12:15:59;;;;;;;;;;;12.70;99.90;;;;;;6720997;88;20076;-80
2024/03/27 12:25:59;;;;;;;;;;;12.40;99.90;;;;;;6719481;88;20068;-80
2024/03/27 12:36:00;;;;;;;;;;;12.70;99.90;;;;;;6718206;88;20062;-79
2024/03/27 12:46:01;;;;;;;;;;;12.80;99.90;;;;;;6716137;88;20047;-79
2024/03/27 12:56:01;;;;;;;;;;;12.50;99.90;;;;;;6723990;88;20054;-78
2024/03/27 13:06:03;;;;;;;;;;;12.40;99.90;;;;;;6717178;88;20085;-79
2024/03/27 13:16:03;;;;;;;;;;;12.00;99.90;;;;;;6720319;88;20122;-78
2024/03/27 13:26:08;;;;;;;;;;;11.50;99.90;;;;;;6711588;88;20184;-78
2024/03/27 13:46:14;;;;;;;;;;;11.10;99.90;;;;;;6725371;88;20115;-78
2024/03/27 13:56:14;;;;;;;;;;;10.60;99.90;;;;;;6699889;88;20594;-78
2024/03/27 14:06:14;;;;;;;;;;;10.10;99.90;;;;;;6702843;88;20094;-79
2024/03/27 14:16:15;;;;;;;;;;;9.60;99.90;;;;;;6705412;88;20713;-77
2024/03/27 14:26:16;;;;;;;;;;;8.90;99.90;;;;;;6718553;88;20108;-78
2024/03/27 14:36:16;;;;;;;;;;;8.80;99.90;;;;;;6713890;88;20298;-77
2024/03/27 14:46:17;;;;;;;;;;;9.30;99.90;;;;;;6720988;88;20071;-79
2024/03/27 14:56:17;;;;;;;;;;;9.60;99.90;;;;;;6721895;88;20079;-78
2024/03/27 15:06:18;;;;;;;;;;;9.60;99.90;;;;;;6716190;88;20063;-79
2024/03/27 15:16:18;;;;;;;;;;;9.60;99.90;;;;;;6703848;88;20104;-78
2024/03/27 15:26:18;;;;;;;;;;;9.40;99.90;;;;;;6703665;88;20194;-78
2024/03/27 15:36:19;;;;;;;;;;;9.60;99.90;;;;;;6717051;88;20519;-78
2024/03/27 15:46:19;;;;;;;;;;;9.30;99.90;;;;;;6719683;88;20072;-78
2024/03/27 15:56:20;;;;;;;;;;;9.40;99.90;;;;;;6720047;88;20128;-78
2024/03/27 16:06:21;;;;;;;;;;;9.40;99.90;;;;;;6719480;88;20055;-78
2024/03/27 16:16:21;;;;;;;;;;;9.40;99.90;;;;;;6722158;88;20651;-79
2024/03/27 16:26:21;;;;;;;;;;;9.30;99.90;;;;;;6724833;88;20063;-78
2024/03/27 16:36:22;;;;;;;;;;;9.30;99.90;;;;;;6720075;88;20202;-78
2024/03/27 16:46:22;;;;;;;;;;;9.20;99.90;;;;;;6727799;88;20079;-78
2024/03/27 16:56:25;;;;;;;;;;;9.20;99.90;;;;;;6733503;88;20075;-78
2024/03/27 17:06:25;;;;;;;;;;;9.10;99.90;;;;;;6732313;88;20163;-79
2024/03/27 17:16:26;;;;;;;;;;;9.10;99.90;;;;;;6727590;88;20078;-78
2024/03/27 17:26:26;;;;;;;;;;;9.10;99.90;;;;;;6711443;88;20684;-77
2024/03/27 17:36:26;;;;;;;;;;;9.00;99.90;;;;;;6711504;88;20071;-77
2024/03/27 17:46:27;;;;;;;;;;;9.00;99.90;;;;;;6716973;88;20064;-78
2024/03/27 17:56:27;;;;;;;;;;;8.90;99.90;;;;;;6726390;88;20123;-78
2024/03/27 18:06:28;;;;;;;;;;;8.90;99.90;;;;;;6720388;88;20610;-78
2024/03/27 18:16:28;;;;;;;;;;;8.80;99.90;;;;;;6720952;88;20134;-77
2024/03/27 18:26:29;;;;;;;;;;;8.70;99.90;;;;;;6719927;88;20162;-78
2024/03/27 18:36:29;;;;;;;;;;;8.80;99.90;;;;;;6715413;88;20124;-77
2024/03/27 18:46:30;;;;;;;;;;;8.70;99.90;;;;;;6724918;88;20078;-78
2024/03/27 18:56:30;;;;;;;;;;;8.50;99.90;;;;;;6718232;88;20078;-78
2024/03/27 19:06:31;;;;;;;;;;;8.50;99.90;;;;;;6719969;88;20632;-77
2024/03/27 19:16:31;;;;;;;;;;;8.40;99.90;;;;;;6722317;88;20073;-77
2024/03/27 19:26:32;;;;;;;;;;;8.40;99.90;;;;;;6722067;88;20095;-77
2024/03/27 19:46:53;;;;;;;;;;;8.40;99.90;;;;;;6711572;77;20145;-77
2024/03/27 19:56:53;;;;;;;;;;;8.30;99.90;;;;;;6731631;88;20554;-76
2024/03/27 20:06:54;;;;;;;;;;;8.20;99.90;;;;;;6735041;88;20062;-78
2024/03/27 20:16:54;;;;;;;;;;;8.20;99.90;;;;;;6751947;87;20098;-78
2024/03/27 20:26:55;;;;;;;;;;;8.10;99.90;;;;;;6734376;88;20054;-78
2024/03/27 20:36:55;;;;;;;;;;;8.10;99.90;;;;;;6733484;88;20053;-78
2024/03/27 20:46:56;;;;;;;;;;;8.10;99.90;;;;;;6730894;88;20522;-78
2024/03/27 20:56:56;;;;;;;;;;;8.10;99.90;;;;;;6730084;88;20535;-78
2024/03/27 21:06:58;;;;;;;;;;;8.00;99.90;;;;;;6735913;88;20068;-77
2024/03/27 21:16:58;;;;;;;;;;;8.10;99.90;;;;;;6735913;88;20052;-77
2024/03/27 21:26:59;;;;;;;;;;;8.10;99.90;;;;;;6736101;88;20141;-78
2024/03/27 21:36:59;;;;;;;;;;;8.10;99.90;;;;;;6731815;88;20043;-78
2024/03/27 21:47:00;;;;;;;;;;;7.90;99.90;;;;;;6731890;88;20059;-78
2024/03/27 21:57:00;;;;;;;;;;;7.90;99.90;;;;;;6734612;88;20166;-77
2024/03/27 22:07:01;;;;;;;;;;;7.90;99.90;;;;;;6729936;88;20084;-78
2024/03/27 22:17:01;;;;;;;;;;;7.90;99.90;;;;;;6731762;88;20063;-77
2024/03/27 22:27:02;;;;;;;;;;;7.80;99.90;;;;;;6724654;88;20062;-78
2024/03/27 22:37:02;;;;;;;;;;;7.80;99.90;;;;;;6731803;88;20067;-78
2024/03/27 22:47:03;;;;;;;;;;;7.80;99.90;;;;;;6742946;88;20070;-77
2024/03/27 22:57:03;;;;;;;;;;;7.80;99.90;;;;;;6731456;88;20055;-77
2024/03/27 23:07:04;;;;;;;;;;;7.80;99.90;;;;;;6732540;88;20209;-78
2024/03/27 23:17:05;;;;;;;;;;;7.80;99.90;;;;;;6734392;88;20043;-78
2024/03/27 23:27:06;;;;;;;;;;;7.70;99.90;;;;;;6729531;88;20569;-78
2024/03/27 23:37:06;;;;;;;;;;;7.70;99.90;;;;;;6731182;88;20699;-78
2024/03/27 23:47:07;;;;;;;;;;;7.70;99.90;;;;;;6730449;88;20078;-78
2024/03/27 23:57:07;;;;;;;;;;;7.60;99.90;;;;;;6726402;88;20094;-78
